createdAt,value
2018-06-21T00:01:06.914Z,18.10
2018-06-21T00:03:47.203Z,18.38
2018-06-21T00:06:21.725Z,18.30
2018-06-21T00:09:01.225Z,18.35
2018-06-21T00:11:41.704Z,18.73
2018-06-21T00:14:18.913Z,18.91
2018-06-21T00:16:53.896Z,18.73
2018-06-21T00:19:27.375Z,18.53
2018-06-21T00:22:00.086Z,18.41
2018-06-21T00:24:32.800Z,18.51
2018-06-21T00:27:11.771Z,18.64
2018-06-21T00:29:49.135Z,18.66
2018-06-21T00:32:27.309Z,18.66
2018-06-21T00:35:00.449Z,18.54
2018-06-21T00:37:48.917Z,18.36
2018-06-21T00:40:29.399Z,18.41
2018-06-21T00:43:02.272Z,18.31
2018-06-21T00:45:34.964Z,18.16
2018-06-21T00:48:09.617Z,17.90
2018-06-21T00:50:47.466Z,17.68
2018-06-21T00:53:21.946Z,17.71
2018-06-21T00:56:13.485Z,17.74
2018-06-21T00:58:48.079Z,17.80
2018-06-21T01:01:22.325Z,17.68
2018-06-21T01:03:54.905Z,17.53
2018-06-21T01:06:28.535Z,17.23
2018-06-21T01:09:08.654Z,16.98
2018-06-21T01:11:46.341Z,16.79
2018-06-21T01:14:25.577Z,16.91
2018-06-21T01:16:58.349Z,17.29
2018-06-21T01:19:31.910Z,17.63
2018-06-21T01:22:10.136Z,17.71
2018-06-21T01:24:48.611Z,17.76
2018-06-21T01:27:26.757Z,17.63
2018-06-21T01:30:08.257Z,17.86
2018-06-21T01:32:46.329Z,18.00
2018-06-21T01:35:24.734Z,18.10
2018-06-21T01:38:07.361Z,18.25
2018-06-21T01:40:39.925Z,18.34
2018-06-21T01:43:12.312Z,18.41
2018-06-21T01:45:50.769Z,18.62
2018-06-21T01:48:25.320Z,18.64
2018-06-21T01:50:57.836Z,18.77
2018-06-21T01:53:31.257Z,18.79
2018-06-21T01:56:04.931Z,18.76
2018-06-21T01:58:42.365Z,18.75
2018-06-21T02:01:16.021Z,18.78
2018-06-21T02:03:49.312Z,18.90
2018-06-21T02:06:25.588Z,18.90
2018-06-21T02:08:58.613Z,18.84
2018-06-21T02:11:36.509Z,18.82
2018-06-21T02:14:09.111Z,18.79
2018-06-21T02:16:43.045Z,18.75
2018-06-21T02:19:15.603Z,18.70
2018-06-21T02:21:48.199Z,18.66
2018-06-21T02:24:29.205Z,18.58
2018-06-21T02:27:05.596Z,18.44
2018-06-21T02:29:39.673Z,18.01
2018-06-21T02:32:12.593Z,17.39
2018-06-21T02:34:45.189Z,17.01
2018-06-21T02:37:17.801Z,16.92
2018-06-21T02:39:51.729Z,17.17
2018-06-21T02:42:30.490Z,17.41
2018-06-21T02:45:04.546Z,17.63
2018-06-21T02:47:38.309Z,17.74
2018-06-21T02:50:16.768Z,17.90
2018-06-21T02:52:54.748Z,17.61
2018-06-21T02:55:29.669Z,17.45
2018-06-21T02:58:02.960Z,17.50
2018-06-21T03:00:40.756Z,17.59
2018-06-21T03:03:15.862Z,17.69
2018-06-21T03:05:48.588Z,17.70
2018-06-21T03:08:29.436Z,17.67
2018-06-21T03:11:08.297Z,17.61
2018-06-21T03:13:45.765Z,17.58
2018-06-21T03:16:23.988Z,17.55
2018-06-21T03:18:57.913Z,17.54
2018-06-21T03:21:30.665Z,17.51
2018-06-21T03:24:08.418Z,17.45
2018-06-21T03:26:41.176Z,17.41
2018-06-21T03:29:13.593Z,17.35
2018-06-21T03:31:51.947Z,17.33
2018-06-21T03:34:31.739Z,17.36
2018-06-21T03:37:08.957Z,17.44
2018-06-21T03:39:41.930Z,17.58
2018-06-21T03:42:15.442Z,17.70
2018-06-21T03:44:47.745Z,17.82
2018-06-21T03:47:20.059Z,17.84
2018-06-21T03:49:53.818Z,17.79
2018-06-21T03:52:26.094Z,17.78
2018-06-21T03:54:58.429Z,17.80
2018-06-21T03:57:31.595Z,17.87
2018-06-21T04:00:06.712Z,17.93
2018-06-21T04:02:39.331Z,17.97
2018-06-21T04:05:13.653Z,18.13
2018-06-21T04:07:46.863Z,18.16
2018-06-21T04:10:25.439Z,18.14
2018-06-21T04:13:03.417Z,18.09
2018-06-21T04:15:40.851Z,18.06
2018-06-21T04:18:14.491Z,18.04
2018-06-21T04:20:47.528Z,18.03
2018-06-21T04:23:25.707Z,18.03
2018-06-21T04:26:03.163Z,18.00
2018-06-21T04:28:37.499Z,18.01
2018-06-21T04:31:09.805Z,18.08
2018-06-21T04:33:48.436Z,18.13
2018-06-21T04:36:26.153Z,18.15
2018-06-21T04:39:06.569Z,18.16
2018-06-21T04:41:39.905Z,18.26
2018-06-21T04:44:12.225Z,18.38
2018-06-21T04:46:49.421Z,18.49
2018-06-21T04:49:27.163Z,18.55
2018-06-21T04:51:59.400Z,18.58
2018-06-21T04:54:39.790Z,18.52
2018-06-21T04:57:19.462Z,18.52
2018-06-21T04:59:57.667Z,18.47
2018-06-21T05:02:31.369Z,18.28
2018-06-21T05:05:05.148Z,18.17
2018-06-21T05:07:43.724Z,18.18
2018-06-21T05:10:17.497Z,18.16
2018-06-21T05:12:50.093Z,18.12
2018-06-21T05:15:28.089Z,18.10
2018-06-21T05:18:09.172Z,18.13
2018-06-21T05:20:47.460Z,18.08
2018-06-21T05:23:20.041Z,18.08
2018-06-21T05:25:52.872Z,17.98
2018-06-21T05:28:27.048Z,17.90
2018-06-21T05:31:00.433Z,17.87
2018-06-21T05:33:39.570Z,17.79
2018-06-21T05:36:16.867Z,17.82
2018-06-21T05:38:54.895Z,17.80
2018-06-21T05:41:36.016Z,17.76
2018-06-21T05:44:08.413Z,17.71
2018-06-21T05:46:41.782Z,17.66
2018-06-21T05:49:20.188Z,17.54
2018-06-21T05:51:52.844Z,17.44
2018-06-21T05:54:25.547Z,17.36
2018-06-21T05:56:58.380Z,17.36
2018-06-21T05:59:30.768Z,17.33
2018-06-21T06:02:09.274Z,17.30
2018-06-21T06:04:47.185Z,17.28
2018-06-21T06:07:19.730Z,17.22
2018-06-21T06:09:55.229Z,17.12
2018-06-21T06:12:30.439Z,17.05
2018-06-21T06:15:06.997Z,16.96
2018-06-21T06:17:45.760Z,16.89
2018-06-21T06:20:24.166Z,16.83
2018-06-21T06:22:56.589Z,16.80
2018-06-21T06:25:34.901Z,16.77
2018-06-21T06:28:13.139Z,16.76
2018-06-21T06:30:46.816Z,16.76
2018-06-21T06:33:19.576Z,16.76
2018-06-21T06:35:57.425Z,16.75
2018-06-21T06:38:36.934Z,16.79
2018-06-21T06:41:16.407Z,16.73
2018-06-21T06:43:50.608Z,16.71
2018-06-21T06:46:23.374Z,16.71
2018-06-21T06:48:56.310Z,16.72
2018-06-21T06:51:29.690Z,16.78
2018-06-21T06:54:08.433Z,16.80
2018-06-21T06:56:46.755Z,16.83
2018-06-21T06:59:35.458Z,16.94
2018-06-21T07:02:13.286Z,17.07
2018-06-21T07:04:46.923Z,17.12
2018-06-21T07:07:22.981Z,17.14
2018-06-21T07:10:02.129Z,17.19
2018-06-21T07:12:41.143Z,17.22
2018-06-21T07:15:17.242Z,17.19
2018-06-21T07:17:51.665Z,17.21
2018-06-21T07:20:26.443Z,17.24
2018-06-21T07:22:59.839Z,17.23
2018-06-21T07:25:38.562Z,17.26
2018-06-21T07:28:17.574Z,17.39
2018-06-21T07:30:53.251Z,17.51
2018-06-21T07:33:26.534Z,17.76
2018-06-21T07:36:05.154Z,17.86
2018-06-21T07:38:40.722Z,17.93
2018-06-21T07:41:14.152Z,17.95
2018-06-21T07:43:53.282Z,17.99
2018-06-21T07:46:26.100Z,18.42
2018-06-21T07:48:59.082Z,18.61
2018-06-21T07:51:37.521Z,18.46
2018-06-21T07:54:15.459Z,18.08
2018-06-21T07:56:48.300Z,17.62
2018-06-21T07:59:20.816Z,17.25
2018-06-21T08:02:00.061Z,17.24
2018-06-21T08:04:39.918Z,17.14
2018-06-21T08:07:18.380Z,17.12
2018-06-21T08:09:57.471Z,17.17
2018-06-21T08:12:37.365Z,17.26
2018-06-21T08:15:16.456Z,17.45
2018-06-21T08:17:57.388Z,17.76
2018-06-21T08:20:29.801Z,17.83
2018-06-21T08:23:03.095Z,18.09
2018-06-21T08:25:50.210Z,18.23
2018-06-21T08:28:28.190Z,18.24
2018-06-21T08:31:01.577Z,18.11
2018-06-21T08:33:34.415Z,18.10
2018-06-21T08:36:12.115Z,17.89
2018-06-21T08:38:47.070Z,18.03
2018-06-21T08:41:21.186Z,18.15
2018-06-21T08:43:53.683Z,18.37
2018-06-21T08:46:26.679Z,18.29
2018-06-21T08:49:02.839Z,18.63
2018-06-21T08:51:43.083Z,18.75
2018-06-21T08:54:16.594Z,18.54
2018-06-21T08:56:50.404Z,18.89
2018-06-21T08:59:28.041Z,19.24
2018-06-21T09:02:06.876Z,18.81
2018-06-21T09:04:46.778Z,18.54
2018-06-21T09:07:26.054Z,18.15
2018-06-21T09:10:04.585Z,18.38
2018-06-21T09:12:45.468Z,18.73
2018-06-21T09:15:19.677Z,18.92
2018-06-21T09:17:55.462Z,18.68
2018-06-21T09:47:41.785Z,20.26
2018-06-21T09:50:20.312Z,19.83
2018-06-21T09:52:54.376Z,19.67
2018-06-21T09:55:32.981Z,19.98
2018-06-21T09:58:23.556Z,19.63
2018-06-21T10:01:03.168Z,20.10
2018-06-21T10:03:36.116Z,19.76
2018-06-21T10:06:10.979Z,19.83
2018-06-21T10:08:43.925Z,19.70
2018-06-21T10:11:19.328Z,20.18
2018-06-21T10:13:58.629Z,20.49
2018-06-21T10:16:32.166Z,20.28
2018-06-21T10:19:05.494Z,19.37
2018-06-21T10:21:41.415Z,19.55
2018-06-21T10:24:15.260Z,19.79
2018-06-21T10:26:51.649Z,20.38
2018-06-21T10:29:24.931Z,20.63
2018-06-21T10:32:02.004Z,20.83
2018-06-21T10:34:35.772Z,20.59
2018-06-21T10:37:12.040Z,19.90
2018-06-21T10:39:45.212Z,20.11
2018-06-21T10:42:19.221Z,20.40
2018-06-21T10:44:56.084Z,19.79
2018-06-21T10:47:28.814Z,19.98
2018-06-21T10:50:01.303Z,20.32
2018-06-21T10:52:34.212Z,20.65
2018-06-21T10:55:09.581Z,20.42
2018-06-21T10:57:44.177Z,20.21
2018-06-21T11:00:20.257Z,20.83
2018-06-21T11:02:55.069Z,20.99
2018-06-21T11:05:30.135Z,21.04
2018-06-21T11:08:03.842Z,20.98
2018-06-21T11:10:37.442Z,20.22
2018-06-21T11:13:13.828Z,20.53
2018-06-21T11:15:50.067Z,20.64
2018-06-21T11:18:24.683Z,20.66
2018-06-21T11:20:59.293Z,20.47
2018-06-21T11:23:36.425Z,20.34
2018-06-21T11:26:11.180Z,20.53
2018-06-21T11:28:43.934Z,20.53
2018-06-21T11:31:18.056Z,20.53
2018-06-21T11:33:55.157Z,20.59
2018-06-21T11:36:30.680Z,20.88
2018-06-21T11:39:12.855Z,21.20
2018-06-21T11:41:54.506Z,21.22
2018-06-21T11:44:30.424Z,20.68
2018-06-21T11:47:06.356Z,20.45
2018-06-21T11:49:41.021Z,20.61
2018-06-21T11:52:15.973Z,20.87
2018-06-21T11:54:52.286Z,20.41
2018-06-21T11:57:27.948Z,19.95
2018-06-21T12:00:08.773Z,19.88
2018-06-21T12:02:46.924Z,19.86
2018-06-21T12:05:26.607Z,19.69
2018-06-21T12:08:01.099Z,19.37
2018-06-21T12:10:35.011Z,19.40
2018-06-21T12:13:08.615Z,19.94
2018-06-21T12:15:42.639Z,20.02
2018-06-21T12:18:17.544Z,20.01
2018-06-21T12:21:01.158Z,19.99
2018-06-21T12:23:36.458Z,19.92
2018-06-21T12:26:13.187Z,20.14
2018-06-21T12:28:48.094Z,20.42
2018-06-21T12:31:25.217Z,20.46
2018-06-21T12:33:59.487Z,20.42
2018-06-21T12:36:35.808Z,20.05
2018-06-21T12:39:10.251Z,19.78
2018-06-21T12:41:44.055Z,19.81
2018-06-21T12:44:17.403Z,19.95
2018-06-21T12:46:56.457Z,20.06
2018-06-21T12:49:30.176Z,20.11
2018-06-21T12:52:06.921Z,20.20
2018-06-21T12:54:44.812Z,20.49
2018-06-21T12:57:17.401Z,20.54
2018-06-21T12:59:50.172Z,20.80
2018-06-21T13:02:24.026Z,20.87
2018-06-21T13:04:58.531Z,21.00
2018-06-21T13:07:32.535Z,20.98
2018-06-21T13:10:30.346Z,21.08
2018-06-21T13:13:22.736Z,21.44
2018-06-21T13:15:59.136Z,21.03
2018-06-21T13:18:31.825Z,21.12
2018-06-21T13:21:10.034Z,20.71
2018-06-21T13:23:46.916Z,20.34
2018-06-21T13:26:22.705Z,20.54
2018-06-21T13:29:01.234Z,20.14
2018-06-21T13:31:35.755Z,20.06
2018-06-21T13:34:09.964Z,20.17
2018-06-21T13:36:43.192Z,20.55
2018-06-21T13:39:17.800Z,20.88
2018-06-21T13:41:56.730Z,20.82
2018-06-21T13:44:35.878Z,20.24
2018-06-21T13:47:14.828Z,19.62
2018-06-21T13:49:54.276Z,19.82
2018-06-21T13:52:27.650Z,20.30
2018-06-21T13:55:05.613Z,20.33
2018-06-21T13:57:44.824Z,20.38
2018-06-21T14:00:18.705Z,20.05
2018-06-21T14:02:52.348Z,19.72
2018-06-21T14:05:25.886Z,19.60
2018-06-21T14:08:05.821Z,19.60
2018-06-21T14:10:41.288Z,19.41
2018-06-21T14:13:20.746Z,19.70
2018-06-21T14:15:58.781Z,20.03
2018-06-21T14:18:38.129Z,20.18
2018-06-21T14:21:13.943Z,20.18
2018-06-21T14:23:51.742Z,20.00
2018-06-21T14:26:28.428Z,19.12
2018-06-21T14:29:09.925Z,18.90
2018-06-21T14:31:44.183Z,19.07
2018-06-21T14:34:22.028Z,19.06
2018-06-21T14:36:56.732Z,19.10
2018-06-21T14:39:33.687Z,18.93
2018-06-21T14:42:15.984Z,18.56
2018-06-21T14:44:53.594Z,18.29
2018-06-21T14:47:26.101Z,18.47
2018-06-21T14:50:00.748Z,18.73
2018-06-21T14:52:35.557Z,18.88
2018-06-21T14:55:11.728Z,18.80
2018-06-21T14:57:45.672Z,18.75
2018-06-21T15:00:59.453Z,18.73
2018-06-21T15:03:34.606Z,18.66
2018-06-21T15:06:12.799Z,18.55
2018-06-21T15:08:45.436Z,18.29
2018-06-21T15:11:21.332Z,18.30
2018-06-21T15:13:56.300Z,18.44
2018-06-21T15:16:29.205Z,18.46
2018-06-21T15:19:06.062Z,18.64
2018-06-21T15:21:40.389Z,19.07
2018-06-21T15:24:15.218Z,19.37
2018-06-21T15:26:48.316Z,19.58
2018-06-21T15:29:21.794Z,19.30
2018-06-21T15:31:56.787Z,18.62
2018-06-21T15:34:30.486Z,18.45
2018-06-21T15:37:13.104Z,18.30
2018-06-21T15:39:45.617Z,18.41
2018-06-21T15:42:18.285Z,18.28
2018-06-21T15:44:52.308Z,18.17
2018-06-21T15:47:35.835Z,18.00
2018-06-21T15:50:17.013Z,17.81
2018-06-21T15:52:53.948Z,17.73
2018-06-21T15:55:28.962Z,17.60
2018-06-21T15:58:04.939Z,17.54
2018-06-21T16:00:40.947Z,17.54
2018-06-21T16:03:16.902Z,17.54
2018-06-21T16:05:53.047Z,17.45
2018-06-21T16:08:26.620Z,17.51
2018-06-21T16:11:07.871Z,17.45
2018-06-21T16:13:41.543Z,17.46
2018-06-21T16:16:22.029Z,17.85
2018-06-21T16:18:59.677Z,18.32
2018-06-21T16:21:39.860Z,18.25
2018-06-21T16:24:16.466Z,17.98
2018-06-21T16:26:49.110Z,17.64
2018-06-21T16:29:24.034Z,17.48
2018-06-21T16:31:56.815Z,17.29
2018-06-21T16:34:40.104Z,17.42
2018-06-21T16:37:16.937Z,17.26
2018-06-21T16:39:51.741Z,17.32
2018-06-21T16:42:26.756Z,17.40
2018-06-21T16:45:05.226Z,17.48
2018-06-21T16:47:42.561Z,17.39
2018-06-21T16:50:18.759Z,17.26
2018-06-21T16:52:54.645Z,17.14
2018-06-21T16:55:30.835Z,16.98
2018-06-21T16:58:07.473Z,16.91
2018-06-21T17:00:44.801Z,16.78
2018-06-21T17:03:25.804Z,16.74
2018-06-21T17:06:02.378Z,16.50
2018-06-21T17:08:42.972Z,16.42
2018-06-21T17:11:21.319Z,16.46
2018-06-21T17:13:55.136Z,16.55
2018-06-21T17:16:30.240Z,16.66
2018-06-21T17:19:04.017Z,16.65
2018-06-21T17:21:36.572Z,16.69
2018-06-21T17:24:10.790Z,16.66
2018-06-21T17:26:45.621Z,16.83
2018-06-21T17:29:25.576Z,16.75
2018-06-21T17:32:03.148Z,16.68
2018-06-21T17:34:40.457Z,16.53
2018-06-21T17:37:18.191Z,16.32
2018-06-21T17:39:54.990Z,16.41
2018-06-21T17:42:32.756Z,16.44
2018-06-21T17:45:07.055Z,16.39
2018-06-21T17:47:44.621Z,16.44
2018-06-21T17:50:24.670Z,16.39
2018-06-21T17:52:58.695Z,16.35
2018-06-21T17:55:36.055Z,16.32
2018-06-21T17:58:10.872Z,16.29
2018-06-21T18:00:45.754Z,16.55
2018-06-21T18:03:26.614Z,16.91
2018-06-21T18:06:02.279Z,17.25
2018-06-21T18:08:36.340Z,17.32
2018-06-21T18:11:10.532Z,17.20
2018-06-21T18:13:44.965Z,16.94
2018-06-21T18:16:33.748Z,16.76
2018-06-21T18:19:09.051Z,16.39
2018-06-21T18:21:42.170Z,16.05
2018-06-21T18:24:24.842Z,15.85
2018-06-21T18:26:57.743Z,15.76
2018-06-21T18:29:34.024Z,15.70
2018-06-21T18:32:10.519Z,15.56
2018-06-21T18:34:49.405Z,15.08
2018-06-21T18:37:25.594Z,14.67
2018-06-21T18:40:00.119Z,14.50
2018-06-21T18:42:35.968Z,14.43
2018-06-21T18:45:19.773Z,14.47
2018-06-21T18:47:54.170Z,14.59
2018-06-21T18:50:28.363Z,14.71
2018-06-21T18:53:03.984Z,14.75
2018-06-21T18:55:37.455Z,14.74
2018-06-21T18:58:14.656Z,14.64
2018-06-21T19:00:54.246Z,14.43
2018-06-21T19:03:30.574Z,14.20
2018-06-21T19:07:28.827Z,14.04
2018-06-21T19:10:09.652Z,13.82
2018-06-21T19:12:45.106Z,13.75
2018-06-21T19:15:26.719Z,13.79
2018-06-21T19:18:13.655Z,13.84
2018-06-21T19:20:48.572Z,13.88
2018-06-21T19:23:28.690Z,13.88
2018-06-21T19:26:04.043Z,13.76
2018-06-21T19:28:55.583Z,13.72
2018-06-21T19:31:33.289Z,13.60
2018-06-21T19:34:09.081Z,13.49
2018-06-21T19:36:47.925Z,13.39
2018-06-21T19:39:28.244Z,13.27
2018-06-21T19:42:06.992Z,13.23
2018-06-21T19:44:46.849Z,13.17
2018-06-21T19:47:26.974Z,13.17
2018-06-21T19:50:01.912Z,13.12
2018-06-21T19:52:35.483Z,13.00
2018-06-21T19:55:09.095Z,12.82
2018-06-21T19:57:49.595Z,12.67
2018-06-21T20:00:27.195Z,12.55
2018-06-21T20:03:07.016Z,12.40
2018-06-21T20:05:46.612Z,12.39
2018-06-21T20:08:29.858Z,12.36
2018-06-21T20:11:14.034Z,12.41
2018-06-21T20:13:50.956Z,12.49
2018-06-21T20:16:32.341Z,12.49
2018-06-21T20:19:45.778Z,12.54
2018-06-21T20:22:31.658Z,12.52
2018-06-21T20:25:09.756Z,12.43
2018-06-21T20:27:46.330Z,12.35
2018-06-21T20:30:25.621Z,12.26
2018-06-21T20:33:03.114Z,12.10
2018-06-21T20:35:40.249Z,11.99
2018-06-21T20:38:22.689Z,12.01
2018-06-21T20:41:00.369Z,12.09
2018-06-21T20:43:43.833Z,12.24
2018-06-21T20:46:25.513Z,12.37
2018-06-21T20:49:07.460Z,12.42
2018-06-21T20:51:44.500Z,12.55
2018-06-21T20:54:32.710Z,12.62
2018-06-21T20:57:25.612Z,12.68
2018-06-21T21:00:15.981Z,12.60
2018-06-21T21:02:53.989Z,12.54
2018-06-21T21:05:37.067Z,12.50
2018-06-21T21:08:27.728Z,12.45
2018-06-21T21:11:08.584Z,12.41
2018-06-21T21:14:03.096Z,12.43
2018-06-21T21:16:39.225Z,12.42
2018-06-21T21:19:21.809Z,12.45
2018-06-21T21:22:17.410Z,12.49
2018-06-21T21:25:00.110Z,12.51
2018-06-21T21:27:36.809Z,12.55
2018-06-21T21:30:20.760Z,12.56
2018-06-21T21:32:58.789Z,12.58
2018-06-21T21:35:31.353Z,12.55
2018-06-21T21:38:08.713Z,12.53
2018-06-21T21:40:53.537Z,12.50
2018-06-21T21:43:38.312Z,12.44
2018-06-21T21:46:12.190Z,12.32
2018-06-21T21:48:49.344Z,12.22
2018-06-21T21:51:25.303Z,12.15
2018-06-21T21:54:00.497Z,12.04
2018-06-21T21:56:41.678Z,11.88
2018-06-21T21:59:16.010Z,11.68
2018-06-21T22:01:50.370Z,11.57
2018-06-21T22:04:29.804Z,11.58
2018-06-21T22:07:03.746Z,11.50
2018-06-21T22:09:39.542Z,11.48
2018-06-21T22:12:18.800Z,11.50
2018-06-21T22:14:56.710Z,11.56
2018-06-21T22:17:33.456Z,11.59
2018-06-21T22:20:09.033Z,11.50
2018-06-21T22:22:41.519Z,11.40
2018-06-21T22:25:20.132Z,11.27
2018-06-21T22:27:57.761Z,11.17
2018-06-21T22:30:30.632Z,11.08
2018-06-21T22:33:03.472Z,10.93
2018-06-21T22:35:39.939Z,10.91
2018-06-21T22:38:21.490Z,10.79
2018-06-21T22:41:07.337Z,10.69
2018-06-21T22:43:44.681Z,10.61
2018-06-21T22:46:21.850Z,10.53
2018-06-21T22:48:58.278Z,10.42
2018-06-21T22:51:35.569Z,10.33
2018-06-21T22:54:09.643Z,10.29
2018-06-21T22:56:52.726Z,10.22
2018-06-21T22:59:29.827Z,10.10
2018-06-21T23:02:05.022Z,10.05
2018-06-21T23:04:39.725Z,10.08
2018-06-21T23:07:17.325Z,9.99
2018-06-21T23:09:53.352Z,9.92
2018-06-21T23:12:30.070Z,9.90
2018-06-21T23:15:09.866Z,9.89
2018-06-21T23:17:45.472Z,9.93
2018-06-21T23:20:19.458Z,9.88
2018-06-21T23:22:54.657Z,9.91
2018-06-21T23:25:30.591Z,9.92
2018-06-21T23:28:04.588Z,9.90
2018-06-21T23:30:37.340Z,9.83
2018-06-21T23:33:17.608Z,9.90
2018-06-21T23:35:53.812Z,9.78
2018-06-21T23:38:29.020Z,9.72
2018-06-21T23:41:02.261Z,9.82
2018-06-21T23:43:34.817Z,9.85
2018-06-21T23:46:08.984Z,9.88
2018-06-21T23:48:42.145Z,9.80
2018-06-21T23:51:15.316Z,9.73
2018-06-21T23:53:48.929Z,9.73
2018-06-21T23:56:23.680Z,9.88
2018-06-21T23:58:59.420Z,10.09
